Time;durP1;ratioP1;P1;durP2;ratioP2;P2;SDS_P1;SDS_P2;PMS_P1;PMS_P2;Temp;Humidity;BMP_temperature;BMP_pressure;BME280_temperature;BME280_humidity;BME280_pressure;Samples;Min_cycle;Max_cycle;Signal;HPM_P1;HPM_P2
2024/01/20 00:00:13;;;;;;;;;;;;;;;;;;4992649;28;20031;-80
2024/01/20 00:02:39;;;;;;;21.17;10.27;;;;;;;;;;4991819;28;19921;-80
2024/01/20 00:05:04;;;;;;;;;;;;;;;;;;4992307;28;20030;-80
2024/01/20 00:07:30;;;;;;;22.80;10.60;;;;;;;;;;4992217;28;19921;-79
2024/01/20 00:09:55;;;;;;;;;;;;;;;;;;4992423;28;20030;-79
2024/01/20 00:12:21;;;;;;;22.48;10.48;;;;;;;;;;4992989;28;20031;-80
2024/01/20 00:14:46;;;;;;;;;;;;;;;;;;4977435;28;20034;-80
2024/01/20 00:17:11;;;;;;;23.65;11.27;;;;;;;;;;4994153;28;19913;-80
2024/01/20 00:19:37;;;;;;;;;;;;;;;;;;5007647;28;20025;-80
2024/01/20 00:22:03;;;;;;;24.63;10.68;;;;;;;;;;4994420;28;19914;-80
2024/01/20 00:24:29;;;;;;;;;;;;;;;;;;4995406;28;20038;-80
2024/01/20 00:26:54;;;;;;;23.70;9.63;;;;;;;;;;5002395;28;20004;-79
2024/01/20 00:29:20;;;;;;;;;;;;;;;;;;4992527;28;20120;-78
2024/01/20 00:31:45;;;;;;;16.80;9.02;;;;;;;;;;4994815;28;20301;-79
2024/01/20 00:34:10;;;;;;;;;;;;;;;;;;5001763;28;20691;-80
2024/01/20 00:36:36;;;;;;;22.42;10.05;;;;;;;;;;4995097;28;20337;-80
2024/01/20 00:39:02;;;;;;;;;;;;;;;;;;4993251;28;20054;-79
2024/01/20 00:41:27;;;;;;;18.63;9.40;;;;;;;;;;4992700;28;19917;-79
2024/01/20 00:43:52;;;;;;;;;;;;;;;;;;4997992;28;20465;-79
2024/01/20 00:46:18;;;;;;;24.05;9.93;;;;;;;;;;5009221;28;19936;-80
2024/01/20 00:48:43;;;;;;;;;;;;;;;;;;5000064;28;20121;-79
2024/01/20 00:51:09;;;;;;;20.38;9.30;;;;;;;;;;5001279;28;19917;-79
2024/01/20 00:53:34;;;;;;;;;;;;;;;;;;5000220;28;20041;-78
2024/01/20 00:55:59;;;;;;;24.48;9.85;;;;;;;;;;5000793;28;20004;-78
2024/01/20 00:58:25;;;;;;;;;;;;;;;;;;4981094;28;20022;-79
2024/01/20 01:00:50;;;;;;;21.88;9.70;;;;;;;;;;4997060;28;20385;-79
2024/01/20 01:03:15;;;;;;;;;;;;;;;;;;4980776;28;20525;-79
2024/01/20 01:05:41;;;;;;;20.35;9.80;;;;;;;;;;4999995;28;19922;-79
2024/01/20 01:08:06;;;;;;;;;;;;;;;;;;5001579;28;20037;-79
2024/01/20 01:10:32;;;;;;;22.33;9.73;;;;;;;;;;5003058;28;21438;-79
2024/01/20 01:12:57;;;;;;;;;;;;;;;;;;4999521;28;20026;-79
2024/01/20 01:15:23;;;;;;;18.67;9.13;;;;;;;;;;5011569;28;19922;-79
2024/01/20 01:17:48;;;;;;;;;;;;;;;;;;5001384;28;20092;-78
2024/01/20 01:20:14;;;;;;;20.80;9.85;;;;;;;;;;5001980;28;19914;-79
2024/01/20 01:22:39;;;;;;;;;;;;;;;;;;5003438;28;20033;-80
2024/01/20 01:25:05;;;;;;;20.20;9.30;;;;;;;;;;5008170;28;19913;-80
2024/01/20 01:27:30;;;;;;;;;;;;;;;;;;5012859;28;20041;-78
2024/01/20 01:29:56;;;;;;;20.42;9.93;;;;;;;;;;5008367;28;19914;-79
2024/01/20 01:32:21;;;;;;;;;;;;;;;;;;4996062;28;20038;-79
2024/01/20 01:34:46;;;;;;;20.75;9.15;;;;;;;;;;5010506;28;19956;-79
2024/01/20 01:37:12;;;;;;;;;;;;;;;;;;5012232;28;20050;-79
2024/01/20 01:39:37;;;;;;;17.63;9.13;;;;;;;;;;5007513;28;19948;-79
2024/01/20 01:42:02;;;;;;;;;;;;;;;;;;5013034;28;20610;-79
2024/01/20 01:44:28;;;;;;;20.98;9.38;;;;;;;;;;5009485;28;19920;-79
2024/01/20 01:46:53;;;;;;;;;;;;;;;;;;4988165;28;20064;-79
2024/01/20 01:49:19;;;;;;;20.00;9.70;;;;;;;;;;5014015;28;19913;-79
2024/01/20 01:51:44;;;;;;;;;;;;;;;;;;5015087;28;20355;-79
2024/01/20 01:54:10;;;;;;;18.65;9.68;;;;;;;;;;5011697;28;19956;-79
2024/01/20 01:56:36;;;;;;;;;;;;;;;;;;5003091;28;20688;-79
2024/01/20 01:59:01;;;;;;;18.60;9.40;;;;;;;;;;4992849;28;19914;-79
2024/01/20 02:01:26;;;;;;;;;;;;;;;;;;5010360;28;20026;-79
2024/01/20 02:03:52;;;;;;;20.00;9.45;;;;;;;;;;4995398;28;19920;-79
2024/01/20 02:06:17;;;;;;;;;;;;;;;;;;4984138;28;20405;-78
2024/01/20 02:08:43;;;;;;;19.50;10.07;;;;;;;;;;4996250;28;19918;-79
2024/01/20 02:11:08;;;;;;;;;;;;;;;;;;5000266;28;20457;-78
2024/01/20 02:13:34;;;;;;;21.10;9.65;;;;;;;;;;5001567;28;19917;-79
2024/01/20 02:15:59;;;;;;;;;;;;;;;;;;5005135;28;20105;-78
2024/01/20 02:18:24;;;;;;;;;;;;;;;;;;4996898;28;19913;-78
2024/01/20 02:20:50;;;;;;;;;;;;;;;;;;4995735;28;20064;-79
2024/01/20 02:23:15;;;;;;;;;;;;;;;;;;4996062;28;20277;-78
2024/01/20 02:25:40;;;;;;;;;;;;;;;;;;4995404;28;20067;-79
2024/01/20 02:28:06;;;;;;;;;;;;;;;;;;4995437;28;20430;-78
2024/01/20 02:30:31;;;;;;;;;;;;;;;;;;5000255;28;19914;-78
2024/01/20 02:32:56;;;;;;;;;;;;;;;;;;4995215;28;19914;-78
2024/01/20 02:35:21;;;;;;;;;;;;;;;;;;4993819;28;19910;-78
2024/01/20 02:37:47;;;;;;;;;;;;;;;;;;4994476;28;19979;-78
2024/01/20 02:40:12;;;;;;;;;;;;;;;;;;4993762;28;19914;-78
2024/01/20 02:42:37;;;;;;;;;;;;;;;;;;4996563;28;20278;-78
2024/01/20 02:45:03;;;;;;;;;;;;;;;;;;5002282;28;19913;-79
2024/01/20 02:47:28;;;;;;;;;;;;;;;;;;4996308;28;20012;-79
2024/01/20 02:49:53;;;;;;;;;;;;;;;;;;4996116;28;20442;-78
2024/01/20 02:52:19;;;;;;;;;;;;;;;;;;4995242;28;19918;-78
2024/01/20 02:54:44;;;;;;;;;;;;;;;;;;4995472;28;19916;-78
2024/01/20 02:57:09;;;;;;;;;;;;;;;;;;4994044;28;20388;-79
2024/01/20 02:59:35;;;;;;;;;;;;;;;;;;4995010;28;19996;-79
2024/01/20 03:02:02;;;;;;;;;;;;;;;;;;4993066;28;19964;-79
2024/01/20 03:04:27;;;;;;;;;;;;;;;;;;4992908;28;19959;-79
2024/01/20 03:06:52;;;;;;;;;;;;;;;;;;4991721;28;20012;-79
2024/01/20 03:09:18;;;;;;;;;;;;;;;;;;4992924;28;19909;-79
2024/01/20 03:11:43;;;;;;;;;;;;;;;;;;4994217;28;19976;-79
2024/01/20 03:14:08;;;;;;;;;;;;;;;;;;4994517;28;19989;-79
2024/01/20 03:16:34;;;;;;;;;;;;;;;;;;4993613;28;19920;-79
2024/01/20 03:18:59;;;;;;;;;;;;;;;;;;4993798;28;19921;-79
2024/01/20 03:21:24;;;;;;;;;;;;;;;;;;4992694;28;19917;-79
2024/01/20 03:23:52;;;;;;;;;;;;;;;;;;4993719;28;19917;-79
2024/01/20 03:26:17;;;;;;;;;;;;;;;;;;4993674;28;20016;-79
2024/01/20 03:28:42;;;;;;;;;;;;;;;;;;4994936;28;21232;-78
2024/01/20 03:31:08;;;;;;;;;;;;;;;;;;5017181;28;19949;-79
2024/01/20 03:33:33;;;;;;;;;;;;;;;;;;4994049;28;19949;-79
2024/01/20 03:35:58;;;;;;;;;;;;;;;;;;4992582;28;20028;-78
2024/01/20 03:38:24;;;;;;;;;;;;;;;;;;4992210;28;20419;-78
2024/01/20 03:40:49;;;;;;;;;;;;;;;;;;4991917;28;19913;-78
2024/01/20 03:43:14;;;;;;;;;;;;;;;;;;4992051;28;20408;-78
2024/01/20 03:45:40;;;;;;;;;;;;;;;;;;4991026;28;20325;-79
2024/01/20 03:48:05;;;;;;;;;;;;;;;;;;4993142;28;20000;-79
2024/01/20 03:50:30;;;;;;;;;;;;;;;;;;4994893;28;19914;-80
2024/01/20 03:52:56;;;;;;;;;;;;;;;;;;4993092;28;19920;-78
2024/01/20 03:55:21;;;;;;;;;;;;;;;;;;4994097;28;19914;-79
2024/01/20 03:57:46;;;;;;;;;;;;;;;;;;4995851;28;20023;-79
2024/01/20 04:00:12;;;;;;;;;;;;;;;;;;5010448;28;20359;-79
2024/01/20 04:02:37;;;;;;;;;;;;;;;;;;4997085;28;19943;-78
2024/01/20 04:05:02;;;;;;;;;;;;;;;;;;5010629;28;19924;-78
2024/01/20 04:07:28;;;;;;;;;;;;;;;;;;4997459;28;19909;-78
2024/01/20 04:09:53;;;;;;;;;;;;;;;;;;4985744;28;20293;-78
2024/01/20 04:12:18;;;;;;;;;;;;;;;;;;4993554;28;19913;-78
2024/01/20 04:14:44;;;;;;;;;;;;;;;;;;5009096;28;19920;-79
2024/01/20 04:17:09;;;;;;;;;;;;;;;;;;5004511;28;19910;-79
2024/01/20 04:19:34;;;;;;;;;;;;;;;;;;4992181;28;19941;-79
2024/01/20 04:22:00;;;;;;;;;;;;;;;;;;4992563;28;19913;-78
2024/01/20 04:24:25;;;;;;;;;;;;;;;;;;5002227;28;19976;-79
2024/01/20 04:26:50;;;;;;;;;;;;;;;;;;4992830;28;19909;-78
2024/01/20 04:29:16;;;;;;;;;;;;;;;;;;5000751;28;19914;-79
2024/01/20 04:31:41;;;;;;;;;;;;;;;;;;4983525;28;19980;-79
2024/01/20 04:34:06;;;;;;;;;;;;;;;;;;4998498;28;20012;-78
2024/01/20 04:36:32;;;;;;;;;;;;;;;;;;4997179;28;20353;-79
2024/01/20 04:38:57;;;;;;;;;;;;;;;;;;4999552;28;20400;-79
2024/01/20 04:41:22;;;;;;;;;;;;;;;;;;5001508;28;19949;-79
2024/01/20 04:43:48;;;;;;;;;;;;;;;;;;5000642;28;20008;-79
2024/01/20 04:46:13;;;;;;;;;;;;;;;;;;5003377;28;19958;-79
2024/01/20 04:49:04;;;;;;;;;;;;;;;;;;5003643;28;20543;-79
2024/01/20 04:51:29;;;;;;;;;;;;;;;;;;4997438;28;19918;-79
2024/01/20 04:53:55;;;;;;;;;;;;;;;;;;5001789;28;19916;-80
2024/01/20 04:56:20;;;;;;;;;;;;;;;;;;4993375;28;19914;-79
2024/01/20 04:58:45;;;;;;;;;;;;;;;;;;4985411;28;19944;-79
2024/01/20 05:01:11;;;;;;;;;;;;;;;;;;4994131;28;19914;-79
2024/01/20 05:03:36;;;;;;;;;;;;;;;;;;4976283;28;19910;-79
2024/01/20 05:06:01;;;;;;;;;;;;;;;;;;4994268;28;19921;-80
2024/01/20 05:08:27;;;;;;;;;;;;;;;;;;4993276;28;19910;-79
2024/01/20 05:10:52;;;;;;;;;;;;;;;;;;4992918;28;20376;-79
2024/01/20 05:13:17;;;;;;;;;;;;;;;;;;4991977;28;19921;-79
2024/01/20 05:15:43;;;;;;;;;;;;;;;;;;4994442;28;19918;-80
2024/01/20 05:18:08;;;;;;;;;;;;;;;;;;4993388;28;19910;-79
2024/01/20 05:20:33;;;;;;;;;;;;;;;;;;4992530;28;19917;-79
2024/01/20 05:22:59;;;;;;;;;;;;;;;;;;4991327;28;19910;-79
2024/01/20 05:25:24;;;;;;;;;;;;;;;;;;4992909;28;19941;-79
2024/01/20 05:27:49;;;;;;;;;;;;;;;;;;4993075;28;19910;-79
2024/01/20 05:30:14;;;;;;;;;;;;;;;;;;4995273;28;20494;-79
2024/01/20 05:32:41;;;;;;;;;;;;;;;;;;4996880;28;19920;-79
2024/01/20 05:35:06;;;;;;;;;;;;;;;;;;4997919;28;19917;-78
2024/01/20 05:37:31;;;;;;;;;;;;;;;;;;4995803;28;19926;-79
2024/01/20 05:39:57;;;;;;;;;;;;;;;;;;4998197;28;19913;-79
2024/01/20 05:42:22;;;;;;;;;;;;;;;;;;4995868;28;19910;-79
2024/01/20 05:44:47;;;;;;;;;;;;;;;;;;4998625;28;19913;-78
2024/01/20 05:47:13;;;;;;;;;;;;;;;;;;4994970;28;19918;-79
2024/01/20 05:49:38;;;;;;;;;;;;;;;;;;4999651;28;19917;-79
2024/01/20 05:52:03;;;;;;;;;;;;;;;;;;4995302;28;20016;-79
2024/01/20 05:54:29;;;;;;;;;;;;;;;;;;5000160;28;19914;-79
2024/01/20 05:56:54;;;;;;;;;;;;;;;;;;4997478;28;20325;-79
2024/01/20 05:59:19;;;;;;;;;;;;;;;;;;4995604;28;19914;-79
2024/01/20 06:01:50;;;;;;;;;;;;;;;;;;4994017;28;19913;-79
2024/01/20 06:04:15;;;;;;;;;;;;;;;;;;4999617;28;19920;-80
2024/01/20 06:06:40;;;;;;;;;;;;;;;;;;4996985;28;19913;-80
2024/01/20 06:09:06;;;;;;;;;;;;;;;;;;4999206;28;19964;-80
2024/01/20 06:11:32;;;;;;;;;;;;;;;;;;4994614;28;19941;-79
2024/01/20 06:13:58;;;;;;;;;;;;;;;;;;5001170;28;20377;-79
2024/01/20 06:16:23;;;;;;;;;;;;;;;;;;5002987;28;19921;-80
2024/01/20 06:19:14;;;;;;;;;;;;;;;;;;4997027;28;20044;-79
2024/01/20 06:21:39;;;;;;;;;;;;;;;;;;5003566;28;20001;-80
2024/01/20 06:24:05;;;;;;;;;;;;;;;;;;4998930;28;19909;-79
2024/01/20 06:26:30;;;;;;;;;;;;;;;;;;5007303;28;20368;-80
2024/01/20 06:28:56;;;;;;;;;;;;;;;;;;4997004;28;19917;-80
2024/01/20 06:31:21;;;;;;;;;;;;;;;;;;5005016;28;20365;-79
2024/01/20 06:33:47;;;;;;;;;;;;;;;;;;4999292;28;19916;-80
2024/01/20 06:36:13;;;;;;;;;;;;;;;;;;4999666;28;19913;-79
2024/01/20 06:38:38;;;;;;;;;;;;;;;;;;4998712;28;19948;-79
2024/01/20 06:41:03;;;;;;;;;;;;;;;;;;4994639;28;19924;-79
2024/01/20 06:43:29;;;;;;;;;;;;;;;;;;4995676;28;20008;-80
2024/01/20 06:45:54;;;;;;;;;;;;;;;;;;4996003;28;19925;-81
2024/01/20 06:48:19;;;;;;;;;;;;;;;;;;4994092;28;20289;-80
2024/01/20 06:50:45;;;;;;;;;;;;;;;;;;4995681;28;19936;-79
2024/01/20 06:53:10;;;;;;;;;;;;;;;;;;4993632;28;19917;-79
2024/01/20 06:55:36;;;;;;;;;;;;;;;;;;4992453;28;19920;-80
2024/01/20 06:58:01;;;;;;;;;;;;;;;;;;4995669;28;20397;-79
2024/01/20 07:00:26;;;;;;;;;;;;;;;;;;4996588;28;20008;-79
2024/01/20 07:02:52;;;;;;;;;;;;;;;;;;5007381;28;19910;-79
2024/01/20 07:05:18;;;;;;;;;;;;;;;;;;5007304;28;19936;-79
2024/01/20 07:07:43;;;;;;;;;;;;;;;;;;5007179;28;19990;-79
2024/01/20 07:10:08;;;;;;;;;;;;;;;;;;5005737;28;19913;-79
2024/01/20 07:12:34;;;;;;;;;;;;;;;;;;5006626;28;20341;-79
2024/01/20 07:14:59;;;;;;;;;;;;;;;;;;5007666;28;19913;-79
2024/01/20 07:17:24;;;;;;;;;;;;;;;;;;4997653;28;20462;-78
2024/01/20 07:19:50;;;;;;;;;;;;;;;;;;5009066;28;19913;-79
2024/01/20 07:22:15;;;;;;;;;;;;;;;;;;4997649;28;19915;-79
2024/01/20 07:24:40;;;;;;;;;;;;;;;;;;4997831;28;19918;-78
2024/01/20 07:27:06;;;;;;;;;;;;;;;;;;4995935;28;20395;-79
2024/01/20 07:29:31;;;;;;;;;;;;;;;;;;4989956;28;19948;-79
2024/01/20 07:31:56;;;;;;;;;;;;;;;;;;4997310;28;20012;-80
2024/01/20 07:34:22;;;;;;;;;;;;;;;;;;4994550;28;19920;-79
2024/01/20 07:36:47;;;;;;;;;;;;;;;;;;4993739;28;19925;-78
2024/01/20 07:39:12;;;;;;;;;;;;;;;;;;4995599;28;20905;-78
2024/01/20 07:41:37;;;;;;;;;;;;;;;;;;4996062;28;19918;-78
2024/01/20 07:44:03;;;;;;;;;;;;;;;;;;4995209;28;19918;-78
2024/01/20 07:46:28;;;;;;;;;;;;;;;;;;4993881;28;19964;-78
2024/01/20 07:48:53;;;;;;;;;;;;;;;;;;4994392;28;20329;-78
2024/01/20 07:51:19;;;;;;;;;;;;;;;;;;4993057;28;19980;-80
2024/01/20 07:53:44;;;;;;;;;;;;;;;;;;4992907;28;19913;-80
2024/01/20 07:56:11;;;;;;;;;;;;;;;;;;4988361;28;19910;-79
2024/01/20 07:58:36;;;;;;;;;;;;;;;;;;4983782;28;19983;-78
2024/01/20 08:01:01;;;;;;;;;;;;;;;;;;4992785;28;19960;-79
2024/01/20 08:03:27;;;;;;;;;;;;;;;;;;4991574;28;20000;-79
2024/01/20 08:05:52;;;;;;;;;;;;;;;;;;4991948;28;19930;-80
2024/01/20 08:08:17;;;;;;;;;;;;;;;;;;4992437;28;19914;-80
2024/01/20 08:10:43;;;;;;;;;;;;;;;;;;4990102;28;19920;-79
2024/01/20 08:13:08;;;;;;;;;;;;;;;;;;4991988;28;20029;-80
2024/01/20 08:15:33;;;;;;;;;;;;;;;;;;4996832;28;19921;-79
2024/01/20 08:17:59;;;;;;;;;;;;;;;;;;4999610;28;19917;-80
2024/01/20 08:20:24;;;;;;;;;;;;;;;;;;4996932;28;20004;-80
2024/01/20 08:22:49;;;;;;;;;;;;;;;;;;4999405;28;19936;-79
2024/01/20 08:25:15;;;;;;;;;;;;;;;;;;4993782;28;19916;-79
2024/01/20 08:27:40;;;;;;;;;;;;;;;;;;4990432;28;19992;-79
2024/01/20 08:30:06;;;;;;;;;;;;;;;;;;4993021;28;19936;-80
2024/01/20 08:32:31;;;;;;;;;;;;;;;;;;4999383;28;20389;-84
2024/01/20 08:34:56;;;;;;;;;;;;;;;;;;4994053;28;20008;-85
2024/01/20 08:37:22;;;;;;;;;;;;;;;;;;4994474;28;19921;-84
2024/01/20 08:39:47;;;;;;;;;;;;;;;;;;5004253;28;20387;-85
2024/01/20 08:42:14;;;;;;;;;;;;;;;;;;4993507;28;19975;-84
2024/01/20 08:44:39;;;;;;;;;;;;;;;;;;4991593;28;20653;-85
2024/01/20 08:47:05;;;;;;;;;;;;;;;;;;4993436;28;19913;-84
2024/01/20 08:49:30;;;;;;;;;;;;;;;;;;4994306;28;19961;-85
2024/01/20 08:51:56;;;;;;;;;;;;;;;;;;4995626;28;19963;-85
2024/01/20 08:54:21;;;;;;;;;;;;;;;;;;4995291;28;20323;-85
2024/01/20 08:56:48;;;;;;;;;;;;;;;;;;4997584;28;19936;-85
2024/01/20 08:59:14;;;;;;;;;;;;;;;;;;4993966;28;20364;-85
2024/01/20 09:01:40;;;;;;;;;;;;;;;;;;5012140;28;19913;-84
2024/01/20 09:04:05;;;;;;;;;;;;;;;;;;4999165;28;19937;-86
2024/01/20 09:06:30;;;;;;;;;;;;;;;;;;5009419;28;19960;-85
2024/01/20 09:08:55;;;;;;;;;;;;;;;;;;5009843;28;20340;-82
2024/01/20 09:11:21;;;;;;;;;;;;;;;;;;4997946;28;19917;-83
2024/01/20 09:13:46;;;;;;;;;;;;;;;;;;5011636;28;19920;-83
2024/01/20 09:16:11;;;;;;;;;;;;;;;;;;5003999;28;19914;-83
2024/01/20 09:18:37;;;;;;;;;;;;;;;;;;5001959;28;20650;-82
2024/01/20 09:21:02;;;;;;;;;;;;;;;;;;4999646;28;19913;-80
2024/01/20 09:23:28;;;;;;;;;;;;;;;;;;4999488;28;19910;-85
2024/01/20 09:25:53;;;;;;;;;;;;;;;;;;4998194;28;20001;-85
2024/01/20 09:28:18;;;;;;;;;;;;;;;;;;5009554;28;20623;-86
2024/01/20 09:30:44;;;;;;;;;;;;;;;;;;5004948;28;19918;-86
2024/01/20 09:33:09;;;;;;;;;;;;;;;;;;5000539;28;19914;-88
2024/01/20 09:35:36;;;;;;;;;;;;;;;;;;5004508;28;20353;-86
2024/01/20 09:38:02;;;;;;;;;;;;;;;;;;4999148;28;19932;-86
2024/01/20 09:40:29;;;;;;;;;;;;;;;;;;5002410;28;19936;-86
2024/01/20 09:42:54;;;;;;;;;;;;;;;;;;4998751;28;19910;-86
2024/01/20 09:45:19;;;;;;;;;;;;;;;;;;5002621;28;20262;-86
2024/01/20 09:47:45;;;;;;;;;;;;;;;;;;4998828;28;20439;-86
2024/01/20 09:50:10;;;;;;;;;;;;;;;;;;5004146;28;19917;-86
2024/01/20 09:52:36;;;;;;;;;;;;;;;;;;5001028;28;19917;-86
2024/01/20 09:55:01;;;;;;;;;;;;;;;;;;5002455;28;19969;-87
2024/01/20 09:57:26;;;;;;;;;;;;;;;;;;4996603;28;19910;-86
2024/01/20 09:59:52;;;;;;;;;;;;;;;;;;4998549;28;20369;-86
2024/01/20 10:02:17;;;;;;;;;;;;;;;;;;4999027;28;19917;-87
2024/01/20 10:04:42;;;;;;;;;;;;;;;;;;4997069;28;19918;-87
2024/01/20 10:07:08;;;;;;;;;;;;;;;;;;4999033;28;19909;-87
2024/01/20 10:09:33;;;;;;;;;;;;;;;;;;4998526;28;20420;-85
2024/01/20 10:11:59;;;;;;;;;;;;;;;;;;4982347;28;19917;-85
2024/01/20 10:14:24;;;;;;;;;;;;;;;;;;4997752;28;20016;-87
2024/01/20 10:16:50;;;;;;;;;;;;;;;;;;4996277;28;19909;-86
2024/01/20 10:19:15;;;;;;;;;;;;;;;;;;4998283;28;20396;-86
2024/01/20 10:21:41;;;;;;;;;;;;;;;;;;5007945;28;19913;-88
2024/01/20 10:24:06;;;;;;;;;;;;;;;;;;4997083;28;19920;-86
2024/01/20 10:26:31;;;;;;;;;;;;;;;;;;4990087;28;19914;-88
2024/01/20 10:28:58;;;;;;;;;;;;;;;;;;4997832;28;19994;-86
2024/01/20 10:31:23;;;;;;;;;;;;;;;;;;4998403;28;19913;-86
2024/01/20 10:33:48;;;;;;;;;;;;;;;;;;5008755;28;19913;-85
2024/01/20 10:36:14;;;;;;;;;;;;;;;;;;4999847;28;19913;-84
2024/01/20 10:38:39;;;;;;;;;;;;;;;;;;5001125;28;19925;-86
2024/01/20 10:41:04;;;;;;;;;;;;;;;;;;4993994;28;19909;-86
2024/01/20 10:43:34;;;;;;;;;;;;;;;;;;5003692;28;19921;-88
2024/01/20 10:46:01;;;;;;;;;;;;;;;;;;4996113;28;19920;-87
2024/01/20 10:48:26;;;;;;;;;;;;;;;;;;5002588;28;19909;-91
2024/01/20 10:50:51;;;;;;;;;;;;;;;;;;4997426;28;20000;-88
2024/01/20 10:53:17;;;;;;;;;;;;;;;;;;5010158;28;19967;-88
2024/01/20 10:55:42;;;;;;;;;;;;;;;;;;5004963;28;19914;-86
2024/01/20 10:58:07;;;;;;;;;;;;;;;;;;4998195;28;19952;-88
2024/01/20 11:00:33;;;;;;;;;;;;;;;;;;4994061;28;19981;-88
2024/01/20 11:02:58;;;;;;;;;;;;;;;;;;4997492;28;19914;-88
2024/01/20 11:05:23;;;;;;;;;;;;;;;;;;4981302;28;19920;-89
2024/01/20 11:07:49;;;;;;;;;;;;;;;;;;4997356;28;20000;-86
2024/01/20 11:10:14;;;;;;;;;;;;;;;;;;4996872;28;19923;-88
2024/01/20 11:12:39;;;;;;;;;;;;;;;;;;4996730;28;20387;-88
2024/01/20 11:15:11;;;;;;;;;;;;;;;;;;4996602;28;19914;-88
2024/01/20 11:17:36;;;;;;;;;;;;;;;;;;4998850;28;19920;-88
2024/01/20 11:20:02;;;;;;;;;;;;;;;;;;4997152;28;20296;-86
2024/01/20 11:22:27;;;;;;;;;;;;;;;;;;4998703;28;19953;-87
2024/01/20 11:24:52;;;;;;;;;;;;;;;;;;4994911;28;20435;-88
2024/01/20 11:27:18;;;;;;;;;;;;;;;;;;4998961;28;19953;-87
2024/01/20 11:29:43;;;;;;;;;;;;;;;;;;4995617;28;19940;-87
2024/01/20 11:32:09;;;;;;;;;;;;;;;;;;5002434;28;19964;-88
2024/01/20 11:34:34;;;;;;;;;;;;;;;;;;5000931;28;19917;-88
2024/01/20 11:37:00;;;;;;;;;;;;;;;;;;5002489;28;19925;-88
2024/01/20 11:39:25;;;;;;;;;;;;;;;;;;4998173;28;19932;-88
2024/01/20 11:41:50;;;;;;;;;;;;;;;;;;5004028;28;19913;-88
2024/01/20 11:44:16;;;;;;;;;;;;;;;;;;4998275;28;20008;-88
2024/01/20 11:46:41;;;;;;;;;;;;;;;;;;5003440;28;19913;-88
2024/01/20 11:49:06;;;;;;;;;;;;;;;;;;4992926;28;19909;-87
2024/01/20 11:51:32;;;;;;;;;;;;;;;;;;5004577;28;20435;-89
2024/01/20 11:53:57;;;;;;;;;;;;;;;;;;4974292;28;20273;-88
2024/01/20 11:56:22;;;;;;;;;;;;;;;;;;4995915;28;19918;-86
2024/01/20 11:58:48;;;;;;;;;;;;;;;;;;4988081;28;19910;-87
2024/01/20 12:01:16;;;;;;;;;;;;;;;;;;4992519;28;19940;-87
2024/01/20 12:03:41;;;;;;;;;;;;;;;;;;4993939;28;19913;-88
2024/01/20 12:06:07;;;;;;;;;;;;;;;;;;4995378;28;19980;-88
2024/01/20 12:08:33;;;;;;;;;;;;;;;;;;4994106;28;19975;-87
2024/01/20 12:10:58;;;;;;;;;;;;;;;;;;5014092;28;19936;-88
2024/01/20 12:13:25;;;;;;;;;;;;;;;;;;5002265;28;19909;-87
2024/01/20 12:15:50;;;;;;;;;;;;;;;;;;4997034;28;20003;-88
2024/01/20 12:18:16;;;;;;;;;;;;;;;;;;4991200;28;20392;-88
2024/01/20 12:20:41;;;;;;;;;;;;;;;;;;4992576;28;19914;-88
2024/01/20 12:23:07;;;;;;;;;;;;;;;;;;4991635;28;20400;-88
2024/01/20 12:25:32;;;;;;;;;;;;;;;;;;4991854;28;19914;-88
2024/01/20 12:27:57;;;;;;;;;;;;;;;;;;4987992;28;20298;-87
2024/01/20 12:30:23;;;;;;;;;;;;;;;;;;5001267;28;19968;-87
2024/01/20 12:32:48;;;;;;;;;;;;;;;;;;4996202;28;19920;-88
2024/01/20 12:35:13;;;;;;;;;;;;;;;;;;4995533;28;20276;-89
2024/01/20 12:37:38;;;;;;;;;;;;;;;;;;4992790;28;19925;-88
2024/01/20 12:40:07;;;;;;;;;;;;;;;;;;5001780;28;19913;-88
2024/01/20 12:42:32;;;;;;;;;;;;;;;;;;5004359;28;20670;-87
2024/01/20 12:44:57;;;;;;;;;;;;;;;;;;5000013;28;20271;-87
2024/01/20 12:47:23;;;;;;;;;;;;;;;;;;4997142;28;19913;-88
2024/01/20 12:49:48;;;;;;;;;;;;;;;;;;4998731;28;19913;-88
2024/01/20 12:52:13;;;;;;;;;;;;;;;;;;4996616;28;19918;-88
2024/01/20 12:54:39;;;;;;;;;;;;;;;;;;4998331;28;19913;-87
2024/01/20 12:57:04;;;;;;;;;;;;;;;;;;4992827;28;19960;-87
2024/01/20 12:59:29;;;;;;;;;;;;;;;;;;4997131;28;19928;-87
2024/01/20 13:01:54;;;;;;;;;;;;;;;;;;5011188;28;20279;-87
2024/01/20 13:04:20;;;;;;;;;;;;;;;;;;5007600;28;19919;-88
2024/01/20 13:06:45;;;;;;;;;;;;;;;;;;5011042;28;19909;-88
2024/01/20 13:09:10;;;;;;;;;;;;;;;;;;5006986;28;19913;-88
2024/01/20 13:11:36;;;;;;;;;;;;;;;;;;5010213;28;20315;-88
2024/01/20 13:14:03;;;;;;;;;;;;;;;;;;5009911;28;19919;-88
2024/01/20 13:16:28;;;;;;;;;;;;;;;;;;5010374;28;19949;-88
2024/01/20 13:18:55;;;;;;;;;;;;;;;;;;5009089;28;19913;-88
2024/01/20 13:21:22;;;;;;;;;;;;;;;;;;5009917;28;20257;-88
2024/01/20 13:23:48;;;;;;;;;;;;;;;;;;5010695;28;19939;-89
2024/01/20 13:26:13;;;;;;;;;;;;;;;;;;5010755;28;20019;-88
2024/01/20 13:28:39;;;;;;;;;;;;;;;;;;5005834;28;19922;-88
2024/01/20 13:31:04;;;;;;;;;;;;;;;;;;4993425;28;19910;-88
2024/01/20 13:33:29;;;;;;;;;;;;;;;;;;4993689;28;19936;-88
2024/01/20 13:35:55;;;;;;;;;;;;;;;;;;4993909;28;19914;-86
2024/01/20 13:38:20;;;;;;;;;;;;;;;;;;4990935;28;19968;-87
2024/01/20 13:40:46;;;;;;;;;;;;;;;;;;4993709;28;20319;-89
2024/01/20 13:43:12;;;;;;;;;;;;;;;;;;4997212;28;19956;-87
2024/01/20 13:45:37;;;;;;;;;;;;;;;;;;4995338;28;19960;-87
2024/01/20 13:48:03;;;;;;;;;;;;;;;;;;4996048;28;19925;-87
2024/01/20 13:50:28;;;;;;;;;;;;;;;;;;4994430;28;19910;-88
2024/01/20 13:52:55;;;;;;;;;;;;;;;;;;5006536;28;19948;-88
2024/01/20 13:55:21;;;;;;;;;;;;;;;;;;4981253;28;19917;-88
2024/01/20 13:57:46;;;;;;;;;;;;;;;;;;4996183;28;20304;-87
2024/01/20 14:00:12;;;;;;;;;;;;;;;;;;4993428;28;20342;-88
2024/01/20 14:02:37;;;;;;;;;;;;;;;;;;4994382;28;19913;-87
2024/01/20 14:05:03;;;;;;;;;;;;;;;;;;4994726;28;19952;-87
2024/01/20 14:07:28;;;;;;;;;;;;;;;;;;4994879;28;20448;-88
2024/01/20 14:09:53;;;;;;;;;;;;;;;;;;4995925;28;19909;-88
2024/01/20 14:12:19;;;;;;;;;;;;;;;;;;4995797;28;20048;-87
2024/01/20 14:14:44;;;;;;;;;;;;;;;;;;4994451;28;19910;-88
2024/01/20 14:17:09;;;;;;;;;;;;;;;;;;4996594;28;19914;-87
2024/01/20 14:19:37;;;;;;;;;;;;;;;;;;4995253;28;19910;-87
2024/01/20 14:22:03;;;;;;;;;;;;;;;;;;4996793;28;19913;-87
2024/01/20 14:24:28;;;;;;;;;;;;;;;;;;4994041;28;19964;-89
2024/01/20 14:26:53;;;;;;;;;;;;;;;;;;4995684;28;20005;-87
2024/01/20 14:29:19;;;;;;;;;;;;;;;;;;4995524;28;20008;-88
2024/01/20 14:31:44;;;;;;;;;;;;;;;;;;4995849;28;19921;-88
2024/01/20 14:34:10;;;;;;;;;;;;;;;;;;4973122;28;19997;-88
2024/01/20 14:36:35;;;;;;;;;;;;;;;;;;4998471;28;19929;-87
2024/01/20 14:39:00;;;;;;;;;;;;;;;;;;5013708;28;19972;-88
2024/01/20 14:41:25;;;;;;;;;;;;;;;;;;5013782;28;19953;-89
2024/01/20 14:43:53;;;;;;;;;;;;;;;;;;5003574;28;19913;-88
2024/01/20 14:46:18;;;;;;;;;;;;;;;;;;5009002;28;19913;-87
2024/01/20 14:48:43;;;;;;;;;;;;;;;;;;4981304;28;19921;-90
2024/01/20 14:51:09;;;;;;;;;;;;;;;;;;5011647;28;19956;-89
2024/01/20 14:53:34;;;;;;;;;;;;;;;;;;5004132;28;19921;-89
2024/01/20 14:56:00;;;;;;;;;;;;;;;;;;5001494;28;19918;-89
2024/01/20 14:58:25;;;;;;;;;;;;;;;;;;4998887;28;19949;-89
2024/01/20 15:00:52;;;;;;;;;;;;;;;;;;4996784;28;19924;-89
2024/01/20 15:03:18;;;;;;;;;;;;;;;;;;5014110;28;19917;-89
2024/01/20 15:05:43;;;;;;;;;;;;;;;;;;5001165;28;19917;-89
2024/01/20 15:08:08;;;;;;;;;;;;;;;;;;5003793;28;19917;-89
2024/01/20 15:10:34;;;;;;;;;;;;;;;;;;5001476;28;20024;-88
2024/01/20 15:12:59;;;;;;;;;;;;;;;;;;5003796;28;19991;-88
2024/01/20 15:15:24;;;;;;;;;;;;;;;;;;5001736;28;19920;-89
2024/01/20 15:17:50;;;;;;;;;;;;;;;;;;5002036;28;19909;-88
2024/01/20 15:20:15;;;;;;;;;;;;;;;;;;4999969;28;19917;-88
2024/01/20 15:22:40;;;;;;;;;;;;;;;;;;4996738;28;20365;-89
2024/01/20 15:25:06;;;;;;;;;;;;;;;;;;4996781;28;20008;-86
2024/01/20 15:27:31;;;;;;;;;;;;;;;;;;4996621;28;19960;-89
2024/01/20 15:29:56;;;;;;;;;;;;;;;;;;4997346;28;19913;-88
2024/01/20 15:32:23;;;;;;;;;;;;;;;;;;4999678;28;19936;-89
2024/01/20 15:34:48;;;;;;;;;;;;;;;;;;4999924;28;19957;-88
2024/01/20 15:37:14;;;;;;;;;;;;;;;;;;4999448;28;20300;-89
2024/01/20 15:39:39;;;;;;;;;;;;;;;;;;5001016;28;20019;-89
2024/01/20 15:42:04;;;;;;;;;;;;;;;;;;5000504;28;19910;-89
2024/01/20 15:44:30;;;;;;;;;;;;;;;;;;5000877;28;19979;-89
2024/01/20 15:46:55;;;;;;;;;;;;;;;;;;5000147;28;19916;-88
2024/01/20 15:49:20;;;;;;;;;;;;;;;;;;4996996;28;19913;-85
2024/01/20 15:51:49;;;;;;;;;;;;;;;;;;4995979;28;19936;-89
2024/01/20 15:54:14;;;;;;;;;;;;;;;;;;4996990;28;20459;-88
2024/01/20 15:56:39;;;;;;;;;;;;;;;;;;4995671;28;19917;-88
2024/01/20 15:59:05;;;;;;;;;;;;;;;;;;4996987;28;19918;-89
2024/01/20 16:01:30;;;;;;;;;;;;;;;;;;4997231;28;19925;-89
2024/01/20 16:03:55;;;;;;;;;;;;;;;;;;4981286;28;19921;-88
2024/01/20 16:06:20;;;;;;;;;;;;;;;;;;4997093;28;19909;-88
2024/01/20 16:08:46;;;;;;;;;;;;;;;;;;4999077;28;20340;-88
2024/01/20 16:11:12;;;;;;;;;;;;;;;;;;4997421;28;19956;-88
2024/01/20 16:13:37;;;;;;;;;;;;;;;;;;4997091;28;20373;-87
2024/01/20 16:16:03;;;;;;;;;;;;;;;;;;4998308;28;19917;-87
2024/01/20 16:18:28;;;;;;;;;;;;;;;;;;4997955;28;20012;-88
2024/01/20 16:20:53;;;;;;;;;;;;;;;;;;4998426;28;20300;-88